createdAt,value
2018-04-01T00:04:04.013Z,44.70
2018-04-01T00:10:07.333Z,42.00
2018-04-01T00:16:10.689Z,46.10
2018-04-01T00:22:13.993Z,33.33
2018-04-01T00:28:18.111Z,30.03
2018-04-01T00:34:21.417Z,29.20
2018-04-01T00:40:25.760Z,32.80
2018-04-01T00:46:29.412Z,32.10
2018-04-01T00:52:32.881Z,30.47
2018-04-01T00:58:36.356Z,29.00
2018-04-01T01:04:39.755Z,29.10
2018-04-01T01:10:43.082Z,30.07
2018-04-01T01:16:46.626Z,31.10
2018-04-01T01:22:49.932Z,28.70
2018-04-01T01:28:53.324Z,32.00
2018-04-01T01:34:56.762Z,34.07
2018-04-01T01:41:00.345Z,27.63
2018-04-01T01:47:03.711Z,24.50
2018-04-01T01:53:07.028Z,24.60
2018-04-01T01:59:10.332Z,22.80
2018-04-01T02:05:13.753Z,22.40
2018-04-01T02:11:17.067Z,25.00
2018-04-01T02:17:20.368Z,25.50
2018-04-01T02:23:23.832Z,25.50
2018-04-01T02:29:27.652Z,25.47
2018-04-01T02:35:31.002Z,24.37
2018-04-01T02:41:34.400Z,24.63
2018-04-01T02:47:37.745Z,22.40
2018-04-01T02:53:41.044Z,21.70
2018-04-01T02:59:44.486Z,22.60
2018-04-01T03:05:48.532Z,23.10
2018-04-01T03:11:52.950Z,24.03
2018-04-01T03:17:56.713Z,26.20
2018-04-01T03:24:00.277Z,23.80
2018-04-01T03:30:03.578Z,24.43
2018-04-01T03:36:07.082Z,25.33
2018-04-01T03:42:10.381Z,26.27
2018-04-01T03:48:13.720Z,22.93
2018-04-01T03:54:17.109Z,23.27
2018-04-01T04:00:20.535Z,34.97
2018-04-01T04:06:23.937Z,23.67
2018-04-01T04:12:28.367Z,24.83
2018-04-01T04:18:31.708Z,25.57
2018-04-01T04:24:35.207Z,24.47
2018-04-01T04:30:38.636Z,24.00
2018-04-01T04:36:42.083Z,23.67
2018-04-01T04:42:45.462Z,24.73
2018-04-01T04:48:48.861Z,26.50
2018-04-01T04:54:52.249Z,34.40
2018-04-01T05:00:57.731Z,32.40
2018-04-01T05:07:01.158Z,29.87
2018-04-01T05:13:04.615Z,31.00
2018-04-01T05:19:07.942Z,32.50
2018-04-01T05:25:11.423Z,29.00
2018-04-01T05:31:14.847Z,29.63
2018-04-01T05:37:18.192Z,28.00
2018-04-01T05:43:21.485Z,23.37
2018-04-01T05:49:24.871Z,24.47
2018-04-01T05:55:29.666Z,29.27
2018-04-01T06:01:32.975Z,33.70
2018-04-01T06:07:36.259Z,26.90
2018-04-01T06:13:39.564Z,25.73
2018-04-01T06:19:42.951Z,26.20
2018-04-01T06:25:46.467Z,28.07
2018-04-01T06:31:49.831Z,29.30
2018-04-01T06:37:53.174Z,27.80
2018-04-01T06:43:56.739Z,31.30
2018-04-01T06:50:00.375Z,33.60
2018-04-01T06:56:03.751Z,33.97
2018-04-01T07:02:08.213Z,34.60
2018-04-01T07:08:13.255Z,33.77
2018-04-01T07:14:16.714Z,33.23
2018-04-01T07:20:20.019Z,36.73
2018-04-01T07:26:24.099Z,34.47
2018-04-01T07:32:29.032Z,34.23
2018-04-01T07:38:32.323Z,32.50
2018-04-01T07:44:35.666Z,31.97
2018-04-01T07:50:39.732Z,30.50
2018-04-01T07:56:43.022Z,31.63
2018-04-01T08:02:46.443Z,28.80
2018-04-01T08:08:49.722Z,28.53
2018-04-01T08:14:53.057Z,29.40
2018-04-01T08:20:56.562Z,30.37
2018-04-01T08:27:00.497Z,37.27
2018-04-01T08:33:03.770Z,32.63
2018-04-01T08:39:07.101Z,35.17
2018-04-01T08:45:10.484Z,33.50
2018-04-01T08:51:13.854Z,34.10
2018-04-01T08:57:17.215Z,32.70
2018-04-01T09:03:20.636Z,34.30
2018-04-01T09:09:24.566Z,36.23
2018-04-01T09:15:28.075Z,36.10
2018-04-01T09:21:31.432Z,31.50
2018-04-01T09:27:34.714Z,36.27
2018-04-01T09:33:38.871Z,41.53
2018-04-01T09:39:42.183Z,37.40
2018-04-01T09:45:45.624Z,31.97
2018-04-01T09:51:49.428Z,30.13
2018-04-01T09:57:53.509Z,37.93
2018-04-01T10:03:58.647Z,28.00
2018-04-01T10:10:03.025Z,27.50
2018-04-01T10:16:07.490Z,27.20
2018-04-01T10:22:12.713Z,26.90
2018-04-01T10:28:17.171Z,28.90
2018-04-01T10:34:21.665Z,32.40
2018-04-01T10:40:27.023Z,27.27
2018-04-01T10:46:31.600Z,29.67
2018-04-01T10:52:36.888Z,26.30
2018-04-01T10:58:42.111Z,25.40
2018-04-01T11:04:45.563Z,26.23
2018-04-01T11:10:48.933Z,23.93
2018-04-01T11:16:52.287Z,25.93
2018-04-01T11:22:56.352Z,27.13
2018-04-01T11:28:59.792Z,28.07
2018-04-01T11:35:03.164Z,26.43
2018-04-01T11:41:06.454Z,28.37
2018-04-01T11:47:09.803Z,28.97
2018-04-01T11:53:13.157Z,32.20
2018-04-01T11:59:16.589Z,22.50
2018-04-01T12:05:19.961Z,24.73
2018-04-01T12:11:25.175Z,23.27
2018-04-01T12:17:28.611Z,24.17
2018-04-01T12:23:32.036Z,24.50
2018-04-01T12:29:35.348Z,25.90
2018-04-01T12:35:38.728Z,21.47
2018-04-01T12:41:42.878Z,25.20
2018-04-01T12:47:46.179Z,29.50
2018-04-01T12:53:49.573Z,22.33
2018-04-01T12:59:52.956Z,20.07
2018-04-01T13:05:56.674Z,14.37
2018-04-01T13:11:59.996Z,16.60
2018-04-01T13:18:03.518Z,15.70
2018-04-01T13:24:06.831Z,15.13
2018-04-01T13:30:10.159Z,16.47
2018-04-01T13:36:13.511Z,14.40
2018-04-01T13:42:16.790Z,19.37
2018-04-01T13:48:20.174Z,24.43
2018-04-01T13:54:23.871Z,16.27
2018-04-01T14:00:27.414Z,15.10
2018-04-01T14:06:31.103Z,14.77
2018-04-01T14:12:34.721Z,13.13
2018-04-01T14:18:38.056Z,13.83
2018-04-01T14:24:41.458Z,10.20
2018-04-01T14:30:44.884Z,10.70
2018-04-01T14:36:48.334Z,9.50
2018-04-01T14:42:51.685Z,10.70
2018-04-01T14:48:55.048Z,9.80
2018-04-01T14:54:58.931Z,15.10
2018-04-01T15:01:02.275Z,11.70
2018-04-01T15:07:05.677Z,12.97
2018-04-01T15:13:08.971Z,14.63
2018-04-01T15:19:12.475Z,14.17
2018-04-01T15:25:16.792Z,14.70
2018-04-01T15:31:20.199Z,16.53
2018-04-01T15:37:23.566Z,15.33
2018-04-01T15:43:26.976Z,15.37
2018-04-01T15:49:30.449Z,13.37
2018-04-01T15:55:34.667Z,14.83
2018-04-01T16:01:38.103Z,14.50
2018-04-01T16:07:41.508Z,15.33
2018-04-01T16:13:45.625Z,15.70
2018-04-01T16:19:48.931Z,15.70
2018-04-01T16:25:52.427Z,22.80
2018-04-01T16:31:56.004Z,16.50
2018-04-01T16:37:59.628Z,17.13
2018-04-01T16:44:03.042Z,16.17
2018-04-01T16:50:06.386Z,14.60
2018-04-01T16:56:09.701Z,14.00
2018-04-01T17:02:13.198Z,12.73
2018-04-01T17:08:16.588Z,13.33
2018-04-01T17:14:19.933Z,20.23
2018-04-01T17:20:24.041Z,13.13
2018-04-01T17:26:28.476Z,12.80
2018-04-01T17:32:31.939Z,14.03
2018-04-01T17:38:35.262Z,15.57
2018-04-01T17:44:38.568Z,26.00
2018-04-01T17:50:41.926Z,36.77
2018-04-01T17:56:45.268Z,31.60
2018-04-01T18:02:48.699Z,41.30
2018-04-01T18:08:52.878Z,54.50
2018-04-01T18:14:56.452Z,60.53
2018-04-01T18:21:00.822Z,46.60
2018-04-01T18:27:04.147Z,39.50
2018-04-01T18:33:07.497Z,23.00
2018-04-01T18:39:10.856Z,20.73
2018-04-01T18:45:15.124Z,22.00
2018-04-01T18:51:18.399Z,24.67
2018-04-01T18:57:21.725Z,24.40
2018-04-01T19:03:25.263Z,26.10
2018-04-01T19:09:29.472Z,34.33
2018-04-01T19:15:32.964Z,34.10
2018-04-01T19:21:38.043Z,32.77
2018-04-01T19:27:43.478Z,29.63
2018-04-01T19:33:48.233Z,30.47
2018-04-01T19:39:52.776Z,27.67
2018-04-01T19:45:57.436Z,32.03
2018-04-01T19:52:02.712Z,39.27
2018-04-01T19:58:08.057Z,47.57
2018-04-01T20:04:12.599Z,45.63
2018-04-01T20:10:17.166Z,38.60
2018-04-01T20:16:21.869Z,34.47
2018-04-01T20:22:27.155Z,34.40
2018-04-01T20:28:31.809Z,37.90
2018-04-01T20:34:36.584Z,37.33
2018-04-01T20:40:41.128Z,46.00
2018-04-01T20:46:45.897Z,37.20
2018-04-01T20:52:50.578Z,29.67
2018-04-01T20:58:55.309Z,26.50
2018-04-01T21:05:00.202Z,28.03
2018-04-01T21:11:05.088Z,28.07
2018-04-01T21:17:09.821Z,28.23
2018-04-01T21:23:14.363Z,27.70
2018-04-01T21:29:18.940Z,23.27
2018-04-01T21:35:23.646Z,25.57
2018-04-01T21:41:28.897Z,23.50
2018-04-01T21:47:33.516Z,24.00
2018-04-01T21:53:38.103Z,26.20
2018-04-01T21:59:42.738Z,26.57
2018-04-01T22:05:47.363Z,27.40
2018-04-01T22:11:52.739Z,31.03
2018-04-01T22:17:57.964Z,28.80
2018-04-01T22:24:02.585Z,28.10
2018-04-01T22:30:07.145Z,24.77
2018-04-01T22:36:11.706Z,24.07
2018-04-01T22:42:16.179Z,24.73
2018-04-01T22:48:20.744Z,24.23
2018-04-01T22:54:25.596Z,24.60
2018-04-01T23:00:30.396Z,24.43
2018-04-01T23:06:35.676Z,26.97
2018-04-01T23:12:40.327Z,30.20
2018-04-01T23:18:46.081Z,34.50
2018-04-01T23:24:50.701Z,30.70
2018-04-01T23:30:55.287Z,26.87
2018-04-01T23:36:59.867Z,29.57
2018-04-01T23:43:05.130Z,31.03
2018-04-01T23:49:09.603Z,31.20
2018-04-01T23:55:14.266Z,27.40
